Provincetown II — WYQ8368 — position and weather

sailwx.info

Track history (hours):
 
Tides and Currents Weather Stations Pressure Air Temp Water Temp Dewpoint Dewpoint Depression Visibility Wind Speed Wind Dir Waves Ship Positions

Provincetown II

Owner: BAY STATE MARINE CORP, BOSTON, MA. More information available from US FCC via Universal Licensing System and Coast Guard Vessel Documentation Center.

Last reported at 2016-Aug-24 21:14 UTC. Time now 2016-Aug-27 20:35 UTC.
Position N 42°21' W 071°02'.

Length 64 m; draft 2 m.

Type: Passenger vessel. MMSI: 376325010.

Date/timePositionNaut miles runAvg speedWind from/ knotsBaromVisibWave heightAir tempDewpointWater temp
2016-Aug-24 21:14N 42°21' W 071°02'4 5.7
2016-Aug-24 20:33N 42°20' W 070°58'4 3.7
2016-Aug-24 19:31N 42°21' W 071°02'3 0.7
2016-Aug-24 15:05N 42°19' W 070°59'3 4.2
2016-Aug-24 14:23N 42°21' W 071°02'4 4.2
2016-Aug-24 13:29N 42°20' W 070°58'4 0.1
2016-Aug-22 11:20N 42°21' W 071°02'0 0.0
2016-Aug-22 10:32N 42°21' W 071°02'0 0.0
2016-Aug-22 09:32N 42°21' W 071°02'0 0.0
2016-Aug-22 08:17N 42°21' W 071°02'0 0.0
2016-Aug-22 07:11N 42°21' W 071°02'0 0.0
2016-Aug-22 06:29N 42°21' W 071°02'0 0.0
2016-Aug-22 05:29N 42°21' W 071°02'0 0.0
2016-Aug-22 04:29N 42°21' W 071°02'0 0.1
2016-Aug-22 03:29N 42°21' W 071°03'0 0.1
2016-Aug-22 02:32N 42°21' W 071°02'0 0.0
2016-Aug-22 01:26N 42°21' W 071°02'0 0.0
2016-Aug-22 00:26N 42°21' W 071°02'0 0.0
2016-Aug-21 23:17N 42°21' W 071°02'0 0.0
2016-Aug-21 22:29N 42°21' W 071°02'0 0.0
2016-Aug-21 21:26N 42°21' W 071°02'0 0.0
2016-Aug-21 20:32N 42°21' W 071°02'0 0.0
2016-Aug-21 19:29N 42°21' W 071°02'0 0.0
2016-Aug-21 18:32N 42°21' W 071°02'0 0.0
2016-Aug-21 17:32N 42°21' W 071°02'0 0.0
2016-Aug-21 16:23N 42°21' W 071°02'0 0.0
2016-Aug-21 15:23N 42°21' W 071°02'0 0.0
2016-Aug-21 14:29N 42°21' W 071°02'0 0.0
2016-Aug-21 12:32N 42°21' W 071°02'0 0.0
2016-Aug-21 11:32N 42°21' W 071°02'0 0.0
2016-Aug-21 10:32N 42°21' W 071°02'0 0.0
2016-Aug-21 09:32N 42°21' W 071°02'0 0.0
2016-Aug-21 08:29N 42°21' W 071°02'0 0.0
2016-Aug-21 07:29N 42°21' W 071°02'0 0.0
2016-Aug-21 06:29N 42°21' W 071°02'0 0.0
2016-Aug-21 04:26N 42°21' W 071°02'0 0.1
2016-Aug-21 03:32N 42°21' W 071°03'0 0.0
2016-Aug-21 02:27N 42°21' W 071°02'1 1.6
2016-Aug-21 01:34N 42°21' W 071°01'4 4.4
2016-Aug-21 00:33N 42°19' W 070°55'5 4.7
2016-Aug-20 23:33N 42°21' W 071°01'1 1.1
2016-Aug-20 22:29N 42°21' W 071°02'0 0.0
2016-Aug-19 22:11N 42°21' W 071°03'0 0.1
2016-Aug-19 21:32N 42°21' W 071°02'4 3.9
2016-Aug-19 20:33N 42°20' W 070°58'4 0.6
2016-Aug-19 14:30N 42°21' W 071°02'4 3.9
2016-Aug-19 13:33N 42°20' W 070°58'4 3.5
2016-Aug-19 12:29N 42°21' W 071°02'0 0.0
2016-Aug-19 02:10N 42°21' W 071°02'3 5.3
2016-Aug-19 01:33N 42°20' W 070°58'1 1.1
2016-Aug-19 00:33N 42°20' W 070°57'4 1.4
2016-Aug-18 21:20N 42°21' W 071°02'4 4.9
2016-Aug-18 20:32N 42°20' W 070°58'4 3.6
2016-Aug-18 19:28N 42°21' W 071°02'3 3.1
2016-Aug-18 18:33N 42°19' W 070°60'0 0.0
2016-Aug-18 15:19N 42°19' W 070°59'3 2.6
2016-Aug-18 14:12N 42°21' W 071°02'4 5.8
2016-Aug-18 13:32N 42°20' W 070°58'4 1.9
2016-Aug-18 11:31N 42°21' W 071°02'0 0.0
2016-Aug-18 10:31N 42°21' W 071°02'0 0.0
2016-Aug-18 09:31N 42°21' W 071°02'0 0.0
2016-Aug-18 08:25N 42°21' W 071°02'0 0.0
2016-Aug-18 07:31N 42°21' W 071°02'0 0.0
2016-Aug-18 06:31N 42°21' W 071°02'0 0.0
2016-Aug-18 05:31N 42°21' W 071°02'0 0.0
2016-Aug-18 04:31N 42°21' W 071°02'0 0.0
2016-Aug-18 03:31N 42°21' W 071°02'0 0.0
2016-Aug-18 02:33N 42°21' W 071°02'0 0.5
2016-Aug-18 01:34N 42°21' W 071°02'5 5.5
2016-Aug-18 00:34N 42°19' W 070°55'5 5.3
2016-Aug-17 23:34N 42°21' W 071°02'1 0.5
2016-Aug-17 22:33N 42°21' W 071°03'0 0.1
2016-Aug-17 21:33N 42°21' W 071°02'4 3.8
2016-Aug-17 20:33N 42°20' W 070°58'4 3.6
2016-Aug-17 19:32N 42°21' W 071°02'3 2.9
2016-Aug-17 18:32N 42°19' W 070°59'0 0.0
2016-Aug-17 15:17N 42°19' W 070°59'3 3.3
2016-Aug-17 14:24N 42°21' W 071°02'4 4.4
2016-Aug-17 13:31N 42°20' W 070°58'4 3.8
2016-Aug-17 12:31N 42°21' W 071°02'0 0.0
2016-Aug-16 21:14N 42°21' W 071°02'4 5.3
2016-Aug-16 20:31N 42°20' W 070°58'4 3.8
2016-Aug-16 19:33N 42°21' W 071°02'0 0.2
2016-Aug-16 18:34N 42°21' W 071°02'0 0.0
2016-Aug-16 14:29N 42°21' W 071°02'4 4.0
2016-Aug-16 13:32N 42°20' W 070°58'4 3.0
2016-Aug-16 12:15N 42°21' W 071°02'0 0.0
2016-Aug-15 21:13N 42°21' W 071°02'4 5.6
2016-Aug-15 20:32N 42°20' W 070°58'2 1.7
2016-Aug-15 19:33N 42°20' W 070°60'2 0.5
2016-Aug-15 15:15N 42°21' W 071°03'4 5.2
2016-Aug-15 14:31N 42°20' W 070°58'4 3.7
2016-Aug-15 13:33N 42°21' W 071°02'0 0.3
2016-Aug-15 12:30N 42°21' W 071°02'2 0.2
2016-Aug-15 04:34N 42°21' W 071°00'1414.3
2016-Aug-15 03:33N 42°15' W 070°43'1515.2
2016-Aug-15 02:33N 42°07' W 070°25'  
Track history (hours):
 
Tides and Currents Weather Stations Pressure Air Temp Water Temp Dewpoint Dewpoint Depression Visibility Wind Speed Wind Dir Waves Ship Positions

Provincetown II

Owner: BAY STATE MARINE CORP, BOSTON, MA. More information available from US FCC via Universal Licensing System and Coast Guard Vessel Documentation Center.

Last reported at 2016-Aug-24 21:14 UTC. Time now 2016-Aug-27 20:35 UTC.
Position N 42°21' W 071°02'.

Length 64 m; draft 2 m.

Type: Passenger vessel. MMSI: 376325010.

Date/timePositionNaut miles runAvg speedWind from/ knotsBaromVisibWave heightAir tempDewpointWater temp
2016-Aug-24 21:14N 42°21' W 071°02'4 5.7
2016-Aug-24 20:33N 42°20' W 070°58'4 3.7
2016-Aug-24 19:31N 42°21' W 071°02'3 0.7
2016-Aug-24 15:05N 42°19' W 070°59'3 4.2
2016-Aug-24 14:23N 42°21' W 071°02'4 4.2
2016-Aug-24 13:29N 42°20' W 070°58'4 0.1
2016-Aug-22 11:20N 42°21' W 071°02'0 0.0
2016-Aug-22 10:32N 42°21' W 071°02'0 0.0
2016-Aug-22 09:32N 42°21' W 071°02'0 0.0
2016-Aug-22 08:17N 42°21' W 071°02'0 0.0
2016-Aug-22 07:11N 42°21' W 071°02'0 0.0
2016-Aug-22 06:29N 42°21' W 071°02'0 0.0
2016-Aug-22 05:29N 42°21' W 071°02'0 0.0
2016-Aug-22 04:29N 42°21' W 071°02'0 0.1
2016-Aug-22 03:29N 42°21' W 071°03'0 0.1
2016-Aug-22 02:32N 42°21' W 071°02'0 0.0
2016-Aug-22 01:26N 42°21' W 071°02'0 0.0
2016-Aug-22 00:26N 42°21' W 071°02'0 0.0
2016-Aug-21 23:17N 42°21' W 071°02'0 0.0
2016-Aug-21 22:29N 42°21' W 071°02'0 0.0
2016-Aug-21 21:26N 42°21' W 071°02'0 0.0
2016-Aug-21 20:32N 42°21' W 071°02'0 0.0
2016-Aug-21 19:29N 42°21' W 071°02'0 0.0
2016-Aug-21 18:32N 42°21' W 071°02'0 0.0
2016-Aug-21 17:32N 42°21' W 071°02'0 0.0
2016-Aug-21 16:23N 42°21' W 071°02'0 0.0
2016-Aug-21 15:23N 42°21' W 071°02'0 0.0
2016-Aug-21 14:29N 42°21' W 071°02'0 0.0
2016-Aug-21 12:32N 42°21' W 071°02'0 0.0
2016-Aug-21 11:32N 42°21' W 071°02'0 0.0
2016-Aug-21 10:32N 42°21' W 071°02'0 0.0
2016-Aug-21 09:32N 42°21' W 071°02'0 0.0
2016-Aug-21 08:29N 42°21' W 071°02'0 0.0
2016-Aug-21 07:29N 42°21' W 071°02'0 0.0
2016-Aug-21 06:29N 42°21' W 071°02'0 0.0
2016-Aug-21 04:26N 42°21' W 071°02'0 0.1
2016-Aug-21 03:32N 42°21' W 071°03'0 0.0
2016-Aug-21 02:27N 42°21' W 071°02'1 1.6
2016-Aug-21 01:34N 42°21' W 071°01'4 4.4
2016-Aug-21 00:33N 42°19' W 070°55'5 4.7
2016-Aug-20 23:33N 42°21' W 071°01'1 1.1
2016-Aug-20 22:29N 42°21' W 071°02'0 0.0
2016-Aug-19 22:11N 42°21' W 071°03'0 0.1
2016-Aug-19 21:32N 42°21' W 071°02'4 3.9
2016-Aug-19 20:33N 42°20' W 070°58'4 0.6
2016-Aug-19 14:30N 42°21' W 071°02'4 3.9
2016-Aug-19 13:33N 42°20' W 070°58'4 3.5
2016-Aug-19 12:29N 42°21' W 071°02'0 0.0
2016-Aug-19 02:10N 42°21' W 071°02'3 5.3
2016-Aug-19 01:33N 42°20' W 070°58'1 1.1
2016-Aug-19 00:33N 42°20' W 070°57'4 1.4
2016-Aug-18 21:20N 42°21' W 071°02'4 4.9
2016-Aug-18 20:32N 42°20' W 070°58'4 3.6
2016-Aug-18 19:28N 42°21' W 071°02'3 3.1
2016-Aug-18 18:33N 42°19' W 070°60'0 0.0
2016-Aug-18 15:19N 42°19' W 070°59'3 2.6
2016-Aug-18 14:12N 42°21' W 071°02'4 5.8
2016-Aug-18 13:32N 42°20' W 070°58'4 1.9
2016-Aug-18 11:31N 42°21' W 071°02'0 0.0
2016-Aug-18 10:31N 42°21' W 071°02'0 0.0
2016-Aug-18 09:31N 42°21' W 071°02'0 0.0
2016-Aug-18 08:25N 42°21' W 071°02'0 0.0
2016-Aug-18 07:31N 42°21' W 071°02'0 0.0
2016-Aug-18 06:31N 42°21' W 071°02'0 0.0
2016-Aug-18 05:31N 42°21' W 071°02'0 0.0
2016-Aug-18 04:31N 42°21' W 071°02'0 0.0
2016-Aug-18 03:31N 42°21' W 071°02'0 0.0
2016-Aug-18 02:33N 42°21' W 071°02'0 0.5
2016-Aug-18 01:34N 42°21' W 071°02'5 5.5
2016-Aug-18 00:34N 42°19' W 070°55'5 5.3
2016-Aug-17 23:34N 42°21' W 071°02'1 0.5
2016-Aug-17 22:33N 42°21' W 071°03'0 0.1
2016-Aug-17 21:33N 42°21' W 071°02'4 3.8
2016-Aug-17 20:33N 42°20' W 070°58'4 3.6
2016-Aug-17 19:32N 42°21' W 071°02'3 2.9
2016-Aug-17 18:32N 42°19' W 070°59'0 0.0
2016-Aug-17 15:17N 42°19' W 070°59'3 3.3
2016-Aug-17 14:24N 42°21' W 071°02'4 4.4
2016-Aug-17 13:31N 42°20' W 070°58'4 3.8
2016-Aug-17 12:31N 42°21' W 071°02'0 0.0
2016-Aug-16 21:14N 42°21' W 071°02'4 5.3
2016-Aug-16 20:31N 42°20' W 070°58'4 3.8
2016-Aug-16 19:33N 42°21' W 071°02'0 0.2
2016-Aug-16 18:34N 42°21' W 071°02'0 0.0
2016-Aug-16 14:29N 42°21' W 071°02'4 4.0
2016-Aug-16 13:32N 42°20' W 070°58'4 3.0
2016-Aug-16 12:15N 42°21' W 071°02'0 0.0
2016-Aug-15 21:13N 42°21' W 071°02'4 5.6
2016-Aug-15 20:32N 42°20' W 070°58'2 1.7
2016-Aug-15 19:33N 42°20' W 070°60'2 0.5
2016-Aug-15 15:15N 42°21' W 071°03'4 5.2
2016-Aug-15 14:31N 42°20' W 070°58'4 3.7
2016-Aug-15 13:33N 42°21' W 071°02'0 0.3
2016-Aug-15 12:30N 42°21' W 071°02'2 0.2
2016-Aug-15 04:34N 42°21' W 071°00'1414.3
2016-Aug-15 03:33N 42°15' W 070°43'1515.2
2016-Aug-15 02:33N 42°07' W 070°25'  

Dump ship's entire track history